Time;durP1;ratioP1;P1;durP2;ratioP2;P2;SDS_P1;SDS_P2;PMS_P1;PMS_P2;Temp;Humidity;BMP_temperature;BMP_pressure;BME280_temperature;BME280_humidity;BME280_pressure;Samples;Min_cycle;Max_cycle;Signal;HPM_P1;HPM_P2
2022/06/29 00:01:19;;;;;;;8.38;2.83;;;;;;;21.66;nan;-24418.81;4979845;28;20733;-58
2022/06/29 00:03:45;;;;;;;3.92;2.58;;;;;;;21.48;nan;-24414.13;4994897;28;20573;-60
2022/06/29 00:06:11;;;;;;;3.42;2.33;;;;;;;21.16;nan;-24405.25;4986239;28;20188;-60
2022/06/29 00:08:36;;;;;;;3.30;2.40;;;;;;;21.27;nan;-24408.28;4978629;28;20226;-61
2022/06/29 00:11:03;;;;;;;3.72;2.70;;;;;;;17.87;nan;-24314.72;4980951;28;20277;-60
2022/06/29 00:13:28;;;;;;;4.15;2.55;;;;;;;21.25;nan;-24407.59;4988673;28;20192;-59
2022/06/29 00:15:54;;;;;;;4.47;2.80;;;;;;;20.80;nan;-24395.25;4981947;28;20573;-60
2022/06/29 00:18:19;;;;;;;3.88;2.60;;;;;;;21.08;nan;-24403.16;4983359;28;20212;-60
2022/06/29 00:20:45;;;;;;;4.13;2.80;;;;;;;21.14;nan;-24404.69;4987599;28;20196;-59
2022/06/29 00:23:11;;;;;;;3.08;2.17;;;;;;;20.96;nan;-24399.84;4981677;28;20184;-59
2022/06/29 00:25:36;;;;;;;4.38;2.70;;;;;;;20.50;nan;-24387.06;4978881;28;20675;-60
2022/06/29 00:28:02;;;;;;;3.65;2.78;;;;;;;20.85;nan;-24396.66;4983505;28;20731;-62
2022/06/29 00:30:27;;;;;;;5.07;2.88;;;;;;;20.94;nan;-24399.28;4981292;28;20186;-60
2022/06/29 00:32:53;;;;;;;4.35;2.88;;;;;;;20.90;nan;-24398.03;4981001;28;20183;-60
2022/06/29 00:35:18;;;;;;;3.65;2.70;;;;;;;20.75;nan;-24394.00;4986454;28;20207;-61
2022/06/29 00:37:44;;;;;;;4.32;2.67;;;;;;;20.80;nan;-24395.41;4987186;28;20218;-60
2022/06/29 00:40:11;;;;;;;3.67;2.60;;;;;;;20.66;nan;-24391.66;4979415;28;20218;-60
2022/06/29 00:42:36;;;;;;;3.42;2.70;;;;;;;21.02;nan;-24401.50;4979196;28;20187;-60
2022/06/29 00:45:02;;;;;;;4.10;2.50;;;;;;;20.83;nan;-24396.09;4985459;28;20217;-60
2022/06/29 00:47:28;;;;;;;3.10;2.35;;;;;;;21.13;nan;-24404.41;4993003;28;20640;-60
2022/06/29 00:49:53;;;;;;;3.67;2.55;;;;;;;20.86;nan;-24396.91;4980380;28;20196;-60
2022/06/29 00:52:24;;;;;;;2.80;2.20;;;;;;;20.73;nan;-24393.59;4984382;28;22067;-61
2022/06/29 00:54:57;;;;;;;3.63;2.60;;;;;;;20.75;nan;-24393.88;4983031;28;20269;-61
2022/06/29 00:57:29;;;;;;;4.03;2.80;;;;;;;20.63;nan;-24390.69;4983308;28;20187;-60
2022/06/29 00:59:59;;;;;;;3.95;2.47;;;;;;;20.61;nan;-24390.25;4981130;28;20917;-61
2022/06/29 01:02:29;;;;;;;3.63;2.85;;;;;;;20.88;nan;-24397.63;4983447;28;20202;-59
2022/06/29 01:04:54;;;;;;;4.93;3.08;;;;;;;20.99;nan;-24400.53;4983602;28;20187;-60
2022/06/29 01:07:24;;;;;;;6.18;2.88;;;;;;;21.00;nan;-24400.81;4988306;28;20180;-58
2022/06/29 01:09:50;;;;;;;4.45;2.92;;;;;;;20.80;nan;-24395.25;4982578;28;20278;-58
2022/06/29 01:12:16;;;;;;;3.13;2.38;;;;;;;20.79;nan;-24395.13;4981757;28;20191;-59
2022/06/29 01:14:43;;;;;;;3.83;2.38;;;;;;;20.91;nan;-24398.44;4984908;28;20686;-59
2022/06/29 01:17:09;;;;;;;3.78;2.30;;;;;;;21.34;nan;-24410.09;4982603;28;20219;-60
2022/06/29 01:19:34;;;;;;;3.88;2.78;;;;;;;21.45;nan;-24413.28;4985448;28;20231;-58
2022/06/29 01:22:16;;;;;;;3.13;2.38;;;;;;;21.51;nan;-24414.81;4992508;28;20226;-60
2022/06/29 01:24:44;;;;;;;4.43;2.90;;;;;;;21.14;nan;-24404.69;4981452;28;20191;-60
2022/06/29 01:27:10;;;;;;;3.88;2.42;;;;;;;21.40;nan;-24411.91;4981175;28;20176;-60
2022/06/29 01:29:36;;;;;;;3.60;2.33;;;;;;;21.27;nan;-24408.16;4991241;28;20183;-60
2022/06/29 01:32:02;;;;;;;4.78;2.40;;;;;;;21.46;nan;-24413.56;4984639;28;20653;-58
2022/06/29 01:34:29;;;;;;;4.00;2.55;;;;;;;21.26;nan;-24407.88;4986464;28;20935;-60
2022/06/29 01:36:54;;;;;;;3.33;2.40;;;;;;;21.19;nan;-24406.06;4984962;28;20183;-61
2022/06/29 01:39:20;;;;;;;4.85;2.80;;;;;;;21.47;nan;-24413.84;4985214;28;20208;-60
2022/06/29 01:41:46;;;;;;;3.58;2.25;;;;;;;21.11;nan;-24403.84;4981592;28;20191;-60
2022/06/29 01:44:11;;;;;;;4.22;2.60;;;;;;;21.09;nan;-24403.44;4982995;28;22336;-58
2022/06/29 01:46:37;;;;;;;4.93;2.53;;;;;;;21.28;nan;-24408.44;4984059;28;20180;-60
2022/06/29 01:49:03;;;;;;;4.80;2.90;;;;;;;21.08;nan;-24403.16;4980530;28;20210;-60
2022/06/29 01:51:28;;;;;;;3.35;2.55;;;;;;;21.36;nan;-24410.66;4981337;28;20582;-59
2022/06/29 01:53:53;;;;;;;3.60;2.58;;;;;;;21.04;nan;-24401.91;4980435;28;20192;-59
2022/06/29 01:56:19;;;;;;;3.38;2.53;;;;;;;20.95;nan;-24399.56;4982975;28;20639;-60
2022/06/29 01:58:45;;;;;;;3.17;2.35;;;;;;;17.63;nan;-24308.28;4987062;28;20235;-61
2022/06/29 02:01:12;;;;;;;4.53;2.83;;;;;;;21.07;nan;-24402.75;4980106;28;20302;-61
2022/06/29 02:03:38;;;;;;;3.90;2.50;;;;;;;21.22;nan;-24406.91;4983397;28;20278;-58
2022/06/29 02:06:04;;;;;;;3.60;2.47;;;;;;;21.08;nan;-24403.03;4981119;28;20233;-59
2022/06/29 02:08:30;;;;;;;3.35;2.40;;;;;;;20.88;nan;-24397.63;4984104;28;20307;-61
2022/06/29 02:10:56;;;;;;;3.08;2.47;;;;;;;21.18;nan;-24405.66;4985568;28;20199;-59
2022/06/29 02:13:21;;;;;;;3.22;2.38;;;;;;;21.03;nan;-24401.63;4982832;28;20613;-59
2022/06/29 02:15:46;;;;;;;4.35;2.67;;;;;;;20.63;nan;-24390.69;4983432;28;20301;-58
2022/06/29 02:18:12;;;;;;;3.95;2.70;;;;;;;20.83;nan;-24396.22;4982101;28;20591;-60
2022/06/29 02:20:38;;;;;;;4.00;2.60;;;;;;;20.75;nan;-24393.88;4990058;28;20187;-60
2022/06/29 02:23:03;;;;;;;3.97;2.78;;;;;;;20.47;nan;-24386.25;4982590;28;20245;-60
2022/06/29 02:25:29;;;;;;;4.00;2.60;;;;;;;20.93;nan;-24398.88;4981722;28;20202;-60
2022/06/29 02:27:54;;;;;;;3.65;2.33;;;;;;;20.75;nan;-24394.00;4983753;28;20330;-59
2022/06/29 02:34:43;;;;;;;4.32;2.90;;;;;;;20.36;nan;-24383.31;4993862;28;20663;-61
2022/06/29 02:35:49;;;;;;;3.08;2.53;;;;;;;20.20;nan;-24379.00;4982250;28;20747;-61
2022/06/29 02:38:14;;;;;;;3.20;2.30;;;;;;;20.54;nan;-24388.31;4981895;28;21312;-60
2022/06/29 02:40:40;;;;;;;5.13;3.03;;;;;;;20.15;nan;-24377.63;4981806;28;20195;-60
2022/06/29 02:43:05;;;;;;;3.47;2.63;;;;;;;20.16;nan;-24377.91;4983391;28;20246;-59
2022/06/29 02:45:31;;;;;;;4.03;2.60;;;;;;;20.50;nan;-24387.22;4986191;28;20180;-59
2022/06/29 02:47:56;;;;;;;3.47;2.40;;;;;;;20.42;nan;-24384.84;4981156;28;20947;-60
2022/06/29 02:50:22;;;;;;;3.75;2.55;;;;;;;20.35;nan;-24382.91;4980146;28;20191;-60
2022/06/29 02:52:47;;;;;;;4.60;2.95;;;;;;;20.43;nan;-24385.13;4981829;28;20198;-60
2022/06/29 02:55:13;;;;;;;6.75;3.05;;;;;;;20.31;nan;-24381.78;4981392;28;20242;-58
2022/06/29 02:57:38;;;;;;;3.85;2.90;;;;;;;20.24;nan;-24380.00;4980600;28;20281;-60
2022/06/29 03:00:04;;;;;;;4.32;3.03;;;;;;;20.31;nan;-24381.78;4979654;28;20192;-61
2022/06/29 03:02:31;;;;;;;3.22;2.40;;;;;;;20.45;nan;-24385.81;4980229;28;20621;-60
2022/06/29 03:04:56;;;;;;;3.88;2.60;;;;;;;20.74;nan;-24393.72;4978177;28;20215;-60
2022/06/29 03:07:21;;;;;;;3.33;2.42;;;;;;;21.16;nan;-24405.25;4977830;28;21120;-60
2022/06/29 03:09:47;;;;;;;6.43;2.75;;;;;;;21.37;nan;-24410.94;4978918;28;20184;-60
2022/06/29 03:12:12;;;;;;;3.83;2.50;;;;;;;21.92;nan;-24426.03;4978690;28;20237;-60
2022/06/29 03:14:38;;;;;;;4.32;3.03;;;;;;;21.94;nan;-24426.59;4980178;28;20191;-61
2022/06/29 03:17:03;;;;;;;3.63;2.70;;;;;;;22.56;nan;-24443.47;4977812;28;20652;-61
2022/06/29 03:19:29;;;;;;;4.53;2.83;;;;;;;22.74;nan;-24448.59;4979540;28;20339;-61
2022/06/29 03:21:54;;;;;;;3.80;2.67;;;;;;;23.25;nan;-24462.41;4979830;28;20261;-61
2022/06/29 03:24:20;;;;;;;4.63;3.03;;;;;;;23.26;nan;-24462.69;4978591;28;21704;-60
2022/06/29 03:26:46;;;;;;;3.63;2.70;;;;;;;23.67;nan;-24473.88;4980124;28;20191;-60
2022/06/29 03:29:11;;;;;;;3.78;2.50;;;;;;;24.37;nan;-24493.03;4977420;28;20183;-61
2022/06/29 03:31:37;;;;;;;4.25;2.92;;;;;;;25.16;nan;-24514.53;4978028;28;20705;-60
2022/06/29 03:34:02;;;;;;;4.38;2.90;;;;;;;26.41;nan;-24548.38;4979590;28;20728;-61
2022/06/29 03:36:29;;;;;;;3.42;2.72;;;;;;;27.18;nan;-24569.38;4978427;28;20815;-60
2022/06/29 03:38:54;;;;;;;3.95;2.58;;;;;;;27.67;nan;-24582.66;4978764;28;20812;-60
2022/06/29 03:41:20;;;;;;;4.57;2.92;;;;;;;27.16;nan;-24568.94;4978114;28;20179;-60
2022/06/29 03:43:45;;;;;;;5.07;2.80;;;;;;;26.47;nan;-24550.16;4980988;28;20180;-61
2022/06/29 03:46:11;;;;;;;4.45;3.42;;;;;;;26.02;nan;-24537.94;4981974;28;20220;-59
2022/06/29 03:48:36;;;;;;;5.57;2.88;;;;;;;25.64;nan;-24527.47;4984545;28;20286;-60
2022/06/29 03:51:02;;;;;;;3.95;2.72;;;;;;;25.84;nan;-24532.97;4976549;28;20754;-60
2022/06/29 03:53:27;;;;;;;3.70;2.50;;;;;;;26.00;nan;-24537.38;4978124;28;20200;-61
2022/06/29 03:55:53;;;;;;;3.70;3.05;;;;;;;26.71;nan;-24556.59;4978718;28;20215;-60
2022/06/29 03:58:19;;;;;;;4.50;2.85;;;;;;;27.08;nan;-24566.63;4980175;28;20199;-60
2022/06/29 04:00:44;;;;;;;4.97;2.92;;;;;;;28.02;nan;-24592.25;4978583;28;20252;-62
2022/06/29 04:03:10;;;;;;;3.80;2.70;;;;;;;29.24;nan;-24625.06;4982664;28;20195;-60
2022/06/29 04:05:35;;;;;;;3.70;2.60;;;;;;;29.77;nan;-24639.53;4986828;28;20190;-60
2022/06/29 04:08:00;;;;;;;3.95;2.78;;;;;;;29.22;nan;-24624.66;4978879;28;20805;-59
2022/06/29 04:10:26;;;;;;;3.55;2.50;;;;;;;30.29;nan;-24653.44;4981950;28;20607;-60
2022/06/29 04:12:51;;;;;;;4.07;2.40;;;;;;;29.47;nan;-24631.34;4981647;28;20215;-62
2022/06/29 04:15:17;;;;;;;4.47;2.97;;;;;;;30.36;nan;-24655.34;4981151;28;20192;-61
2022/06/29 04:17:42;;;;;;;3.13;2.42;;;;;;;30.43;nan;-24657.25;4981694;28;20218;-64
2022/06/29 04:20:08;;;;;;;2.90;2.13;;;;;;;31.09;nan;-24674.97;4980487;28;20887;-63
2022/06/29 04:22:34;;;;;;;3.90;2.75;;;;;;;31.80;nan;-24694.16;4984047;28;20185;-63
2022/06/29 04:24:59;;;;;;;3.15;2.55;;;;;;;31.42;nan;-24683.81;4985331;28;20631;-60
2022/06/29 04:27:25;;;;;;;5.00;2.70;;;;;;;31.78;nan;-24693.47;4983288;28;20179;-60
2022/06/29 04:29:51;;;;;;;5.18;2.85;;;;;;;31.42;nan;-24683.94;4989649;28;22048;-59
2022/06/29 04:32:16;;;;;;;4.20;2.83;;;;;;;31.52;nan;-24686.66;4991764;28;20261;-59
2022/06/29 04:34:42;;;;;;;3.60;2.85;;;;;;;32.15;nan;-24703.38;4982389;28;20849;-60
2022/06/29 04:37:07;;;;;;;3.72;2.72;;;;;;;31.45;nan;-24684.63;4987368;28;20186;-60
2022/06/29 04:39:33;;;;;;;3.58;2.42;;;;;;;30.51;nan;-24659.44;4984159;28;21175;-62
2022/06/29 04:41:58;;;;;;;4.97;2.97;;;;;;;29.87;nan;-24642.00;4982770;28;22173;-59
2022/06/29 04:44:25;;;;;;;5.50;3.05;;;;;;;29.78;nan;-24639.69;4987780;28;20175;-61
2022/06/29 04:46:52;;;;;;;3.83;2.92;;;;;;;30.91;nan;-24670.06;4982089;28;20179;-62
2022/06/29 04:49:18;;;;;;;5.63;2.80;;;;;;;31.13;nan;-24676.06;4985494;28;20180;-61
2022/06/29 04:51:43;;;;;;;4.43;3.03;;;;;;;30.50;nan;-24659.03;4982151;28;22241;-61
2022/06/29 04:54:09;;;;;;;6.32;3.30;;;;;;;30.90;nan;-24669.94;4981930;28;20172;-62
2022/06/29 04:56:35;;;;;;;4.90;3.17;;;;;;;30.81;nan;-24667.34;4982452;28;20183;-61
2022/06/29 04:59:02;;;;;;;5.35;2.97;;;;;;;30.84;nan;-24668.31;4984145;28;20674;-61
2022/06/29 05:01:30;;;;;;;4.43;2.88;;;;;;;30.24;nan;-24652.09;4982351;28;20818;-61
2022/06/29 05:03:56;;;;;;;3.92;2.92;;;;;;;30.04;nan;-24646.78;4982232;28;20566;-60
2022/06/29 05:06:22;;;;;;;5.38;3.83;;;;;;;29.60;nan;-24634.91;4982256;28;20277;-61
2022/06/29 05:08:48;;;;;;;3.95;2.88;;;;;;;29.54;nan;-24633.25;4984224;28;20187;-60
2022/06/29 05:11:15;;;;;;;4.22;3.05;;;;;;;28.96;nan;-24617.69;4981365;28;20250;-62
2022/06/29 05:13:44;;;;;;;3.78;2.97;;;;;;;28.78;nan;-24612.78;4983404;28;20705;-61
2022/06/29 05:16:10;;;;;;;3.40;2.45;;;;;;;28.69;nan;-24610.31;4986788;28;20257;-60
2022/06/29 05:18:35;;;;;;;4.50;3.20;;;;;;;28.77;nan;-24612.50;4980988;28;20235;-60
2022/06/29 05:21:01;;;;;;;4.18;2.83;;;;;;;28.86;nan;-24614.97;4982159;28;20285;-61
2022/06/29 05:23:29;;;;;;;6.43;2.70;;;;;;;28.78;nan;-24612.63;4981287;28;20184;-62
2022/06/29 05:25:55;;;;;;;3.67;2.95;;;;;;;27.98;nan;-24591.16;4981899;28;20184;-62
2022/06/29 05:28:20;;;;;;;3.83;2.92;;;;;;;28.30;nan;-24599.66;4983134;28;21005;-62
2022/06/29 05:30:46;;;;;;;4.25;3.20;;;;;;;28.39;nan;-24602.25;4980811;28;22108;-60
2022/06/29 05:33:11;;;;;;;4.25;3.15;;;;;;;28.58;nan;-24607.16;4980282;28;20238;-63
2022/06/29 05:35:36;;;;;;;3.55;2.92;;;;;;;28.99;nan;-24618.50;4981572;28;20210;-62
2022/06/29 05:38:02;;;;;;;6.53;3.20;;;;;;;29.41;nan;-24629.72;4981053;28;21716;-60
2022/06/29 05:40:29;;;;;;;4.45;2.78;;;;;;;29.19;nan;-24623.69;4982101;28;20196;-60
2022/06/29 05:42:57;;;;;;;3.97;3.00;;;;;;;28.96;nan;-24617.56;4980574;28;20179;-61
2022/06/29 05:45:23;;;;;;;4.07;3.00;;;;;;;29.08;nan;-24620.84;4980624;28;20682;-62
2022/06/29 05:47:49;;;;;;;4.80;2.95;;;;;;;29.40;nan;-24629.59;4981005;28;20176;-61
2022/06/29 05:50:14;;;;;;;3.83;2.88;;;;;;;29.05;nan;-24619.88;4979569;28;20213;-60
2022/06/29 05:52:40;;;;;;;6.80;3.08;;;;;;;28.95;nan;-24617.41;4979990;28;20567;-62
2022/06/29 05:55:06;;;;;;;4.40;3.13;;;;;;;28.14;nan;-24595.25;4981939;28;20230;-60
2022/06/29 05:57:33;;;;;;;6.75;3.40;;;;;;;28.17;nan;-24596.22;4980169;28;20283;-60
2022/06/29 06:00:01;;;;;;;4.03;3.08;;;;;;;28.26;nan;-24598.69;4981223;28;20191;-62
2022/06/29 06:02:27;;;;;;;6.95;3.10;;;;;;;27.99;nan;-24591.44;4980679;28;20693;-60
2022/06/29 06:04:52;;;;;;;5.20;3.05;;;;;;;27.89;nan;-24588.69;4985873;28;20180;-60
2022/06/29 06:07:18;;;;;;;6.05;3.65;;;;;;;27.97;nan;-24590.88;4983346;28;20666;-61
2022/06/29 06:09:44;;;;;;;4.85;3.30;;;;;;;27.85;nan;-24587.59;4981153;28;21017;-61
2022/06/29 06:12:09;;;;;;;4.88;3.15;;;;;;;27.59;nan;-24580.59;4981550;28;20273;-62
2022/06/29 06:14:35;;;;;;;3.97;2.92;;;;;;;27.63;nan;-24581.56;4980790;28;20184;-60
2022/06/29 06:17:00;;;;;;;4.15;2.97;;;;;;;27.36;nan;-24574.31;4980938;28;20627;-61
2022/06/29 06:19:25;;;;;;;3.92;2.90;;;;;;;27.25;nan;-24571.41;4980161;28;20259;-63
2022/06/29 06:21:51;;;;;;;6.00;3.25;;;;;;;27.39;nan;-24575.13;4980494;28;20208;-60
2022/06/29 06:24:16;;;;;;;4.70;3.35;;;;;;;27.36;nan;-24574.31;4981388;28;20708;-61
2022/06/29 06:26:42;;;;;;;4.95;3.28;;;;;;;27.70;nan;-24583.47;4981268;28;20684;-59
2022/06/29 06:29:07;;;;;;;3.55;2.97;;;;;;;27.94;nan;-24590.06;4980755;28;20180;-61
2022/06/29 06:31:34;;;;;;;4.32;2.97;;;;;;;28.16;nan;-24595.94;4980321;28;20185;-60
2022/06/29 06:34:00;;;;;;;3.60;2.95;;;;;;;28.47;nan;-24604.44;4986503;28;20198;-61
2022/06/29 06:36:26;;;;;;;4.40;3.20;;;;;;;27.75;nan;-24584.72;4979740;28;20203;-61
2022/06/29 06:38:51;;;;;;;7.28;3.22;;;;;;;28.01;nan;-24591.97;4979667;28;20204;-61
2022/06/29 06:41:24;;;;;;;3.55;2.63;;;;;;;28.43;nan;-24603.34;4980190;28;20180;-61
2022/06/29 06:43:55;;;;;;;7.45;3.78;;;;;;;28.30;nan;-24599.78;4981277;28;20180;-61
2022/06/29 06:46:21;;;;;;;5.20;3.20;;;;;;;28.23;nan;-24597.88;4979793;28;20184;-61
2022/06/29 06:48:49;;;;;;;4.57;3.15;;;;;;;28.13;nan;-24595.13;4980448;28;20298;-59
2022/06/29 06:51:15;;;;;;;4.25;3.17;;;;;;;28.50;nan;-24605.13;4983272;28;20180;-60
2022/06/29 06:53:40;;;;;;;6.70;3.17;;;;;;;28.46;nan;-24604.03;4980376;28;20199;-61
2022/06/29 06:56:09;;;;;;;4.97;3.30;;;;;;;28.36;nan;-24601.41;4980435;28;20251;-62
2022/06/29 06:58:37;;;;;;;5.43;3.40;;;;;;;28.52;nan;-24605.66;4980549;28;20219;-61
2022/06/29 07:01:07;;;;;;;4.75;3.05;;;;;;;28.42;nan;-24602.94;4978949;28;20187;-62
2022/06/29 07:03:36;;;;;;;4.13;3.10;;;;;;;28.64;nan;-24608.94;4980722;28;20188;-62
2022/06/29 07:06:06;;;;;;;4.30;2.90;;;;;;;28.74;nan;-24611.53;4981287;28;21900;-61
2022/06/29 07:08:32;;;;;;;5.50;3.65;;;;;;;28.55;nan;-24606.47;4979044;28;20202;-61
2022/06/29 07:11:02;;;;;;;4.25;3.25;;;;;;;28.67;nan;-24609.75;4980584;28;20192;-62
2022/06/29 07:13:28;;;;;;;5.80;3.22;;;;;;;28.33;nan;-24600.59;4980888;28;21958;-63
2022/06/29 07:15:54;;;;;;;4.57;3.03;;;;;;;28.65;nan;-24609.22;4981181;28;20203;-64
2022/06/29 07:18:20;;;;;;;4.15;3.17;;;;;;;28.65;nan;-24609.22;4981014;28;20211;-61
2022/06/29 07:20:45;;;;;;;5.40;3.28;;;;;;;28.63;nan;-24608.66;4979592;28;20842;-62
2022/06/29 07:23:11;;;;;;;5.07;3.45;;;;;;;28.90;nan;-24616.06;4977172;28;20318;-63
2022/06/29 07:25:36;;;;;;;3.72;3.03;;;;;;;28.80;nan;-24613.31;4979060;28;20179;-61
2022/06/29 07:28:02;;;;;;;5.07;3.33;;;;;;;28.84;nan;-24614.28;4980259;28;20183;-61
2022/06/29 07:30:28;;;;;;;6.10;3.40;;;;;;;28.77;nan;-24612.50;4978904;28;20671;-60
2022/06/29 07:32:53;;;;;;;4.65;3.15;;;;;;;29.13;nan;-24622.19;4978255;28;20575;-61
2022/06/29 07:35:19;;;;;;;5.35;3.85;;;;;;;29.20;nan;-24623.97;4979176;28;20183;-62
2022/06/29 07:37:45;;;;;;;6.03;3.38;;;;;;;29.22;nan;-24624.53;4978710;28;20271;-63
2022/06/29 07:40:11;;;;;;;3.95;3.13;;;;;;;26.77;nan;-24558.38;4978448;28;20222;-62
2022/06/29 07:42:36;;;;;;;6.68;3.92;;;;;;;;;;4978640;28;20191;-61
2022/06/29 07:45:08;;;;;;;4.53;3.53;;;;;;;29.12;nan;-24621.94;4978457;28;20203;-62
2022/06/29 07:47:33;;;;;;;4.47;3.47;;;;;;;29.33;nan;-24627.53;4979380;28;20181;-61
2022/06/29 07:49:59;;;;;;;4.70;3.45;;;;;;;29.21;nan;-24624.25;4977770;28;20182;-63
2022/06/29 07:52:25;;;;;;;5.10;3.35;;;;;;;29.42;nan;-24630.00;4981929;28;20618;-61
2022/06/29 07:54:51;;;;;;;4.13;3.03;;;;;;;29.57;nan;-24633.94;4977675;28;20217;-59
2022/06/29 07:57:17;;;;;;;4.05;3.28;;;;;;;29.46;nan;-24631.06;4981700;28;20631;-60
2022/06/29 07:59:43;;;;;;;4.22;3.03;;;;;;;29.80;nan;-24640.34;4982157;28;21820;-62
2022/06/29 08:02:09;;;;;;;3.53;3.05;;;;;;;30.06;nan;-24647.19;4986395;28;21863;-61
2022/06/29 08:04:34;;;;;;;4.05;3.22;;;;;;;30.27;nan;-24652.91;4983956;28;20561;-60
2022/06/29 08:07:00;;;;;;;4.32;3.30;;;;;;;30.26;nan;-24652.63;4980862;28;20702;-61
2022/06/29 08:09:25;;;;;;;4.43;3.10;;;;;;;30.47;nan;-24658.38;4982643;28;20215;-61
2022/06/29 08:11:51;;;;;;;5.65;3.28;;;;;;;30.20;nan;-24651.00;4981959;28;20198;-59
2022/06/29 08:14:17;;;;;;;4.47;3.25;;;;;;;30.07;nan;-24647.59;4983679;28;20229;-59
2022/06/29 08:16:43;;;;;;;4.55;3.35;;;;;;;30.26;nan;-24652.63;4983699;28;21892;-60
2022/06/29 08:19:08;;;;;;;5.88;3.33;;;;;;;30.10;nan;-24648.28;4943494;28;1123961;-60
2022/06/29 08:21:34;;;;;;;4.07;2.90;;;;;;;30.20;nan;-24651.13;4982133;28;20258;-61
2022/06/29 08:23:59;;;;;;;4.43;3.40;;;;;;;30.24;nan;-24652.09;4982073;28;20196;-61
2022/06/29 08:26:25;;;;;;;5.25;3.10;;;;;;;30.17;nan;-24650.31;4983719;28;20183;-60
2022/06/29 08:28:51;;;;;;;4.80;3.17;;;;;;;29.97;nan;-24644.88;4982372;28;20191;-61
2022/06/29 08:31:16;;;;;;;4.75;2.92;;;;;;;29.86;nan;-24641.84;4982262;28;20283;-61
2022/06/29 08:33:42;;;;;;;4.07;3.05;;;;;;;29.72;nan;-24638.03;4984368;28;20197;-60
2022/06/29 08:36:08;;;;;;;4.80;2.95;;;;;;;29.68;nan;-24637.09;4983769;28;20341;-60
2022/06/29 08:38:33;;;;;;;4.47;2.88;;;;;;;30.07;nan;-24647.59;4983637;28;20722;-62
2022/06/29 08:40:59;;;;;;;5.22;3.20;;;;;;;30.27;nan;-24653.03;4982844;28;20183;-62
2022/06/29 08:43:25;;;;;;;4.90;3.42;;;;;;;30.33;nan;-24654.53;4986196;28;20218;-60
2022/06/29 08:45:52;;;;;;;6.95;3.80;;;;;;;30.16;nan;-24649.91;4983592;28;20250;-61
2022/06/29 08:48:17;;;;;;;4.60;3.28;;;;;;;30.31;nan;-24654.00;4984605;28;20763;-61
2022/06/29 08:50:49;;;;;;;4.97;3.20;;;;;;;30.13;nan;-24649.09;4982988;28;20168;-59
2022/06/29 08:53:15;;;;;;;4.82;3.20;;;;;;;29.67;nan;-24636.69;4981477;28;21145;-61
2022/06/29 08:55:47;;;;;;;5.05;3.20;;;;;;;30.23;nan;-24651.81;4981830;28;21387;-59
2022/06/29 08:58:24;;;;;;;8.23;3.28;;;;;;;30.26;nan;-24652.63;4982742;28;20214;-60
2022/06/29 09:00:50;;;;;;;5.50;3.78;;;;;;;30.53;nan;-24659.84;4981412;28;20302;-62
2022/06/29 09:03:20;;;;;;;7.10;3.20;;;;;;;30.58;nan;-24661.22;4984107;28;20253;-60
2022/06/29 09:05:48;;;;;;;4.65;3.28;;;;;;;30.42;nan;-24657.00;4983188;28;20307;-62
2022/06/29 09:08:16;;;;;;;7.57;2.80;;;;;;;30.65;nan;-24663.13;4982574;28;20202;-61
2022/06/29 09:10:42;;;;;;;3.72;2.97;;;;;;;30.56;nan;-24660.81;4984204;28;20182;-63
2022/06/29 09:13:08;;;;;;;5.72;3.50;;;;;;;30.66;nan;-24663.53;4983598;28;20180;-61
2022/06/29 09:15:39;;;;;;;4.38;2.67;;;;;;;30.53;nan;-24660.00;4982335;28;21400;-62
2022/06/29 09:18:30;;;;;;;5.03;3.10;;;;;;;30.66;nan;-24663.53;4982096;28;20888;-63
2022/06/29 09:20:59;;;;;;;3.60;3.00;;;;;;;29.29;nan;-24626.44;4981138;28;20261;-60
2022/06/29 09:23:26;;;;;;;4.03;3.15;;;;;;;30.74;nan;-24665.44;4981331;28;20172;-61
2022/06/29 09:25:52;;;;;;;3.72;2.80;;;;;;;31.11;nan;-24675.66;4980103;28;20194;-62
2022/06/29 09:28:21;;;;;;;5.40;3.65;;;;;;;30.89;nan;-24669.53;4982579;28;20188;-60
2022/06/29 09:30:47;;;;;;;3.63;2.90;;;;;;;30.85;nan;-24668.44;4983126;28;20252;-62
2022/06/29 09:33:13;;;;;;;5.43;3.60;;;;;;;30.60;nan;-24661.75;4998502;28;20195;-62
2022/06/29 09:35:39;;;;;;;4.80;3.00;;;;;;;30.75;nan;-24665.84;4980449;28;20651;-61
2022/06/29 09:38:25;;;;;;;4.50;3.10;;;;;;;31.12;nan;-24675.91;4980732;28;21291;-60
2022/06/29 09:41:01;;;;;;;4.03;2.90;;;;;;;31.32;nan;-24681.22;4981802;28;20237;-60
2022/06/29 09:43:28;;;;;;;3.58;2.70;;;;;;;31.23;nan;-24678.66;4998281;28;20277;-61
2022/06/29 09:45:54;;;;;;;4.88;2.63;;;;;;;31.20;nan;-24677.84;4981406;28;20222;-61
2022/06/29 09:48:23;;;;;;;5.18;3.08;;;;;;;31.37;nan;-24682.59;4980899;28;20221;-61
2022/06/29 09:50:50;;;;;;;4.85;3.50;;;;;;;31.08;nan;-24674.69;4981183;28;20910;-60
2022/06/29 09:53:18;;;;;;;3.47;2.90;;;;;;;31.55;nan;-24687.50;4981153;28;20196;-62
2022/06/29 09:55:48;;;;;;;4.72;2.95;;;;;;;31.43;nan;-24684.22;4980751;28;20657;-62
2022/06/29 09:58:18;;;;;;;4.10;2.97;;;;;;;31.50;nan;-24686.13;4981405;28;20938;-63
2022/06/29 10:02:34;;;;;;;3.08;2.15;;;;;;;31.85;nan;-24695.38;4980996;28;20195;-59
2022/06/29 10:03:32;;;;;;;3.92;2.65;;;;;;;31.45;nan;-24684.63;4980819;28;20217;-61
2022/06/29 10:06:05;;;;;;;2.72;2.30;;;;;;;31.36;nan;-24682.31;4980122;28;20309;-61
2022/06/29 10:08:35;;;;;;;3.08;2.22;;;;;;;31.03;nan;-24673.34;4981703;28;20187;-60
2022/06/29 10:14:03;;;;;;;5.00;2.50;;;;;;;30.81;nan;-24667.34;4980894;28;20308;-61
2022/06/29 10:16:35;;;;;;;3.22;2.47;;;;;;;31.06;nan;-24674.28;4982695;28;20182;-61
2022/06/29 10:19:09;;;;;;;3.95;2.40;;;;;;;31.07;nan;-24674.44;4979411;28;22307;-62
2022/06/29 10:21:35;;;;;;;3.60;2.88;;;;;;;31.00;nan;-24672.53;4981503;28;20191;-60
2022/06/29 10:24:02;;;;;;;2.85;2.33;;;;;;;31.09;nan;-24674.97;4980155;28;20222;-63
2022/06/29 10:26:31;;;;;;;4.45;2.72;;;;;;;31.25;nan;-24679.31;4980959;28;20182;-63
2022/06/29 10:29:19;;;;;;;3.83;2.80;;;;;;;30.99;nan;-24672.25;4982161;28;20198;-62
2022/06/29 10:31:51;;;;;;;3.63;2.55;;;;;;;31.13;nan;-24676.19;4981282;28;20202;-61
2022/06/29 10:34:28;;;;;;;4.15;2.80;;;;;;;31.03;nan;-24673.47;4981567;28;20301;-64
2022/06/29 10:37:07;;;;;;;3.63;2.85;;;;;;;30.83;nan;-24667.88;4981113;28;20271;-62
2022/06/29 10:39:45;;;;;;;4.78;2.80;;;;;;;31.09;nan;-24675.09;4980410;28;20252;-61
2022/06/29 10:45:16;;;;;;;3.08;2.53;;;;;;;31.35;nan;-24682.03;4976712;28;20205;-64
2022/06/29 10:47:52;;;;;;;5.10;2.88;;;;;;;31.69;nan;-24691.03;4981135;28;20209;-63
2022/06/29 10:50:19;;;;;;;3.58;2.75;;;;;;;31.60;nan;-24688.56;4980365;28;20196;-61
2022/06/29 10:52:45;;;;;;;5.03;3.15;;;;;;;31.18;nan;-24677.41;4980499;28;20210;-63
2022/06/29 10:55:12;;;;;;;3.88;2.80;;;;;;;31.10;nan;-24675.25;4980287;28;20185;-61
2022/06/29 10:57:39;;;;;;;4.53;3.00;;;;;;;30.57;nan;-24660.94;4980724;28;20183;-61
2022/06/29 11:00:09;;;;;;;4.53;3.00;;;;;;;30.62;nan;-24662.44;4980949;28;20376;-64
2022/06/29 11:02:38;;;;;;;4.47;3.00;;;;;;;30.81;nan;-24667.34;4981242;28;20244;-63
2022/06/29 11:05:04;;;;;;;4.45;2.92;;;;;;;30.76;nan;-24665.97;4980635;28;20200;-63
2022/06/29 11:12:58;;;;;;;5.28;3.25;;;;;;;30.43;nan;-24657.13;4979687;28;20195;-60
2022/06/29 11:15:47;;;;;;;4.68;3.20;;;;;;;30.66;nan;-24663.41;4980848;28;20985;-62
2022/06/29 11:18:26;;;;;;;4.55;3.30;;;;;;;30.78;nan;-24666.53;4979142;28;20221;-63
2022/06/29 11:20:53;;;;;;;5.68;3.33;;;;;;;30.74;nan;-24665.44;4980535;28;20191;-62
2022/06/29 11:23:29;;;;;;;4.70;3.30;;;;;;;30.82;nan;-24667.63;4981765;28;20187;-64
2022/06/29 11:25:56;;;;;;;4.28;3.20;;;;;;;30.05;nan;-24646.91;4979650;28;20256;-62
2022/06/29 11:28:32;;;;;;;6.40;3.53;;;;;;;30.84;nan;-24668.31;4995604;28;20182;-61
2022/06/29 11:31:06;;;;;;;6.05;3.67;;;;;;;31.19;nan;-24677.56;4977785;28;20182;-63
2022/06/29 11:33:37;;;;;;;5.05;3.67;;;;;;;30.99;nan;-24672.25;4981056;28;21569;-60
2022/06/29 11:36:10;;;;;;;4.15;3.20;;;;;;;30.81;nan;-24667.47;4980158;28;20237;-62
2022/06/29 11:38:40;;;;;;;6.13;3.45;;;;;;;30.98;nan;-24672.09;4979506;28;20258;-62
2022/06/29 11:43:03;;;;;;;5.22;3.55;;;;;;;30.69;nan;-24664.34;4979397;28;20186;-62
2022/06/29 11:44:22;;;;;;;4.75;3.13;;;;;;;31.14;nan;-24676.47;4979977;28;20187;-62
2022/06/29 11:46:47;;;;;;;5.53;3.72;;;;;;;31.26;nan;-24679.47;4979108;28;20194;-62
2022/06/29 11:49:36;;;;;;;5.10;3.35;;;;;;;31.32;nan;-24681.09;4981636;28;20184;-61
2022/06/29 11:52:03;;;;;;;4.85;3.53;;;;;;;31.24;nan;-24678.91;4979720;28;20179;-62
2022/06/29 11:54:43;;;;;;;5.07;3.38;;;;;;;31.76;nan;-24693.06;4980185;28;20183;-63
2022/06/29 11:57:26;;;;;;;4.55;3.22;;;;;;;31.65;nan;-24690.06;4980834;28;20697;-61